Temryuk, Russia
Current Conditions -  °F | °C
As of 7:30 AM on Monday 20 Oct 2014 (Local Time) from URKA Reporting Station
Clear Clear  
Wind Chill: 26°   Ceiling: Unl
Heat Index: 32°   Visibility: 6mi
Dew Point: 28°   Wind: 7mph
Humidity: 87%   Direction: 130°SE
Pressure: 30.27"   Gusts: NA
Location:  45.27°N, 37.38°E
Report Text: URKA 200430Z 13003MPS CAVOK M00/M02 Q1025 NOSIG RMK QFE764/1019SC070
Loading
Personal Weather Stations






























Interactive Weather Map
Tropical Storm Tracking
New forecast layout! Learn more

10-Day Weather Forecast

Advertisements
Track Severe Weather on mobile